sensor_id;sensor_type;location;lat;lon;timestamp;temperature;humidity
15343;DHT22;7771;48.478;8.936;2023-04-01T00:00:14;10.40;99.90
15343;DHT22;7771;48.478;8.936;2023-04-01T00:02:42;10.40;99.90
15343;DHT22;7771;48.478;8.936;2023-04-01T00:05:09;10.40;99.90
15343;DHT22;7771;48.478;8.936;2023-04-01T00:07:36;10.40;99.90
15343;DHT22;7771;48.478;8.936;2023-04-01T00:10:03;10.40;99.90
15343;DHT22;7771;48.478;8.936;2023-04-01T00:12:29;10.40;99.90
15343;DHT22;7771;48.478;8.936;2023-04-01T00:14:56;10.30;99.90
15343;DHT22;7771;48.478;8.936;2023-04-01T00:17:23;10.30;99.90
15343;DHT22;7771;48.478;8.936;2023-04-01T00:19:49;10.40;99.90
15343;DHT22;7771;48.478;8.936;2023-04-01T00:22:17;10.40;99.90
15343;DHT22;7771;48.478;8.936;2023-04-01T00:24:43;10.40;99.90
15343;DHT22;7771;48.478;8.936;2023-04-01T00:27:11;10.40;99.90
15343;DHT22;7771;48.478;8.936;2023-04-01T00:29:41;10.40;99.90
15343;DHT22;7771;48.478;8.936;2023-04-01T00:32:05;10.40;99.90
15343;DHT22;7771;48.478;8.936;2023-04-01T00:34:32;10.40;99.90
15343;DHT22;7771;48.478;8.936;2023-04-01T00:37:00;10.40;99.90
15343;DHT22;7771;48.478;8.936;2023-04-01T00:39:29;10.40;99.90
15343;DHT22;7771;48.478;8.936;2023-04-01T00:41:55;10.40;99.90
15343;DHT22;7771;48.478;8.936;2023-04-01T00:44:24;10.30;99.90
15343;DHT22;7771;48.478;8.936;2023-04-01T00:46:50;10.40;99.90
15343;DHT22;7771;48.478;8.936;2023-04-01T00:49:17;10.30;99.90
15343;DHT22;7771;48.478;8.936;2023-04-01T00:51:44;10.30;99.90
15343;DHT22;7771;48.478;8.936;2023-04-01T00:54:10;10.30;99.90
15343;DHT22;7771;48.478;8.936;2023-04-01T00:56:40;10.30;99.90
15343;DHT22;7771;48.478;8.936;2023-04-01T00:59:06;10.30;99.90
15343;DHT22;7771;48.478;8.936;2023-04-01T01:01:32;10.30;99.90
15343;DHT22;7771;48.478;8.936;2023-04-01T01:03:59;10.30;99.90
15343;DHT22;7771;48.478;8.936;2023-04-01T01:06:45;10.30;99.90
15343;DHT22;7771;48.478;8.936;2023-04-01T01:11:44;10.20;99.90
15343;DHT22;7771;48.478;8.936;2023-04-01T01:14:13;10.20;99.90
15343;DHT22;7771;48.478;8.936;2023-04-01T01:16:41;10.20;99.90
15343;DHT22;7771;48.478;8.936;2023-04-01T01:19:09;10.20;99.90
15343;DHT22;7771;48.478;8.936;2023-04-01T01:21:42;10.20;99.90
15343;DHT22;7771;48.478;8.936;2023-04-01T01:24:26;10.20;99.90
15343;DHT22;7771;48.478;8.936;2023-04-01T01:26:52;10.20;99.90
15343;DHT22;7771;48.478;8.936;2023-04-01T01:34:40;10.20;99.90
15343;DHT22;7771;48.478;8.936;2023-04-01T01:37:10;10.10;99.90
15343;DHT22;7771;48.478;8.936;2023-04-01T01:39:36;10.10;99.90
15343;DHT22;7771;48.478;8.936;2023-04-01T01:42:04;10.10;99.90
15343;DHT22;7771;48.478;8.936;2023-04-01T01:44:30;10.10;99.90
15343;DHT22;7771;48.478;8.936;2023-04-01T01:46:56;10.10;99.90
15343;DHT22;7771;48.478;8.936;2023-04-01T01:49:24;10.10;99.90
15343;DHT22;7771;48.478;8.936;2023-04-01T01:51:51;10.10;99.90
15343;DHT22;7771;48.478;8.936;2023-04-01T01:54:18;10.10;99.90
15343;DHT22;7771;48.478;8.936;2023-04-01T01:56:46;10.10;99.90
15343;DHT22;7771;48.478;8.936;2023-04-01T01:59:11;10.10;99.90
15343;DHT22;7771;48.478;8.936;2023-04-01T02:01:39;10.10;99.90
15343;DHT22;7771;48.478;8.936;2023-04-01T02:04:05;10.10;99.90
15343;DHT22;7771;48.478;8.936;2023-04-01T02:06:32;10.10;99.90
15343;DHT22;7771;48.478;8.936;2023-04-01T02:09:00;10.10;99.90
15343;DHT22;7771;48.478;8.936;2023-04-01T02:11:27;10.10;99.90
15343;DHT22;7771;48.478;8.936;2023-04-01T02:13:58;10.10;99.90
15343;DHT22;7771;48.478;8.936;2023-04-01T02:16:27;10.10;99.90
15343;DHT22;7771;48.478;8.936;2023-04-01T02:18:53;10.20;99.90
15343;DHT22;7771;48.478;8.936;2023-04-01T02:21:21;10.20;99.90
15343;DHT22;7771;48.478;8.936;2023-04-01T02:23:47;10.20;99.90
15343;DHT22;7771;48.478;8.936;2023-04-01T02:26:14;10.10;99.90
15343;DHT22;7771;48.478;8.936;2023-04-01T02:28:42;10.20;99.90
15343;DHT22;7771;48.478;8.936;2023-04-01T02:31:10;10.20;99.90
15343;DHT22;7771;48.478;8.936;2023-04-01T02:33:36;10.20;99.90
15343;DHT22;7771;48.478;8.936;2023-04-01T02:36:02;10.20;99.90
15343;DHT22;7771;48.478;8.936;2023-04-01T02:38:29;10.20;99.90
15343;DHT22;7771;48.478;8.936;2023-04-01T02:40:59;10.20;99.90
15343;DHT22;7771;48.478;8.936;2023-04-01T02:43:25;10.20;99.90
15343;DHT22;7771;48.478;8.936;2023-04-01T02:45:52;10.20;99.90
15343;DHT22;7771;48.478;8.936;2023-04-01T02:48:19;10.10;99.90
15343;DHT22;7771;48.478;8.936;2023-04-01T02:50:46;10.00;99.90
15343;DHT22;7771;48.478;8.936;2023-04-01T02:53:13;10.00;99.90
15343;DHT22;7771;48.478;8.936;2023-04-01T02:55:40;9.90;99.90
15343;DHT22;7771;48.478;8.936;2023-04-01T02:58:08;9.90;99.90
15343;DHT22;7771;48.478;8.936;2023-04-01T03:00:35;9.80;99.90
15343;DHT22;7771;48.478;8.936;2023-04-01T03:03:03;9.90;99.90
15343;DHT22;7771;48.478;8.936;2023-04-01T03:05:31;9.90;99.90
15343;DHT22;7771;48.478;8.936;2023-04-01T03:07:57;9.80;99.90
15343;DHT22;7771;48.478;8.936;2023-04-01T03:10:25;9.70;99.90
15343;DHT22;7771;48.478;8.936;2023-04-01T03:12:52;9.60;99.90
15343;DHT22;7771;48.478;8.936;2023-04-01T03:15:19;9.60;99.90
15343;DHT22;7771;48.478;8.936;2023-04-01T03:17:47;9.60;99.90
15343;DHT22;7771;48.478;8.936;2023-04-01T03:20:14;9.50;99.90
15343;DHT22;7771;48.478;8.936;2023-04-01T03:22:41;9.50;99.90
15343;DHT22;7771;48.478;8.936;2023-04-01T03:25:08;9.50;99.90
15343;DHT22;7771;48.478;8.936;2023-04-01T03:27:36;9.40;99.90
15343;DHT22;7771;48.478;8.936;2023-04-01T03:30:04;9.40;99.90
15343;DHT22;7771;48.478;8.936;2023-04-01T03:32:31;9.30;99.90
15343;DHT22;7771;48.478;8.936;2023-04-01T03:34:58;9.30;99.90
15343;DHT22;7771;48.478;8.936;2023-04-01T03:37:24;9.30;99.90
15343;DHT22;7771;48.478;8.936;2023-04-01T03:39:51;9.30;99.90
15343;DHT22;7771;48.478;8.936;2023-04-01T03:42:19;9.20;99.90
15343;DHT22;7771;48.478;8.936;2023-04-01T03:44:45;9.20;99.90
15343;DHT22;7771;48.478;8.936;2023-04-01T03:47:12;9.20;99.90
15343;DHT22;7771;48.478;8.936;2023-04-01T03:49:39;9.20;99.90
15343;DHT22;7771;48.478;8.936;2023-04-01T03:52:08;9.20;99.90
15343;DHT22;7771;48.478;8.936;2023-04-01T03:54:33;9.20;99.90
15343;DHT22;7771;48.478;8.936;2023-04-01T03:57:00;9.20;99.90
15343;DHT22;7771;48.478;8.936;2023-04-01T03:59:27;9.20;99.90
15343;DHT22;7771;48.478;8.936;2023-04-01T04:01:54;9.20;99.90
15343;DHT22;7771;48.478;8.936;2023-04-01T04:04:22;9.20;99.90
15343;DHT22;7771;48.478;8.936;2023-04-01T04:06:49;9.20;99.90
15343;DHT22;7771;48.478;8.936;2023-04-01T04:09:16;9.30;99.90
15343;DHT22;7771;48.478;8.936;2023-04-01T04:11:43;9.20;99.90
15343;DHT22;7771;48.478;8.936;2023-04-01T04:14:10;9.20;99.90
15343;DHT22;7771;48.478;8.936;2023-04-01T04:16:37;9.20;99.90
15343;DHT22;7771;48.478;8.936;2023-04-01T04:19:04;9.20;99.90
15343;DHT22;7771;48.478;8.936;2023-04-01T04:21:31;9.20;99.90
15343;DHT22;7771;48.478;8.936;2023-04-01T04:23:59;9.20;99.90
15343;DHT22;7771;48.478;8.936;2023-04-01T04:26:26;9.20;99.90
15343;DHT22;7771;48.478;8.936;2023-04-01T04:28:53;9.10;99.90
15343;DHT22;7771;48.478;8.936;2023-04-01T04:31:21;9.10;99.90
15343;DHT22;7771;48.478;8.936;2023-04-01T04:33:47;9.10;99.90
15343;DHT22;7771;48.478;8.936;2023-04-01T04:36:14;9.10;99.90
15343;DHT22;7771;48.478;8.936;2023-04-01T04:38:41;9.10;99.90
15343;DHT22;7771;48.478;8.936;2023-04-01T04:41:10;9.10;99.90
15343;DHT22;7771;48.478;8.936;2023-04-01T04:43:37;9.10;99.90
15343;DHT22;7771;48.478;8.936;2023-04-01T04:46:06;9.10;99.90
15343;DHT22;7771;48.478;8.936;2023-04-01T04:48:33;9.10;99.90
15343;DHT22;7771;48.478;8.936;2023-04-01T04:51:01;9.10;99.90
15343;DHT22;7771;48.478;8.936;2023-04-01T04:53:28;9.10;99.90
15343;DHT22;7771;48.478;8.936;2023-04-01T04:55:55;9.10;99.90
15343;DHT22;7771;48.478;8.936;2023-04-01T04:58:22;9.20;99.90
15343;DHT22;7771;48.478;8.936;2023-04-01T05:00:48;9.30;99.90
15343;DHT22;7771;48.478;8.936;2023-04-01T05:03:15;9.20;99.90
15343;DHT22;7771;48.478;8.936;2023-04-01T05:08:13;9.30;99.90
15343;DHT22;7771;48.478;8.936;2023-04-01T05:13:21;9.40;99.90
15343;DHT22;7771;48.478;8.936;2023-04-01T05:15:48;9.40;99.90
15343;DHT22;7771;48.478;8.936;2023-04-01T05:18:15;9.50;99.90
15343;DHT22;7771;48.478;8.936;2023-04-01T05:20:51;9.50;99.90
15343;DHT22;7771;48.478;8.936;2023-04-01T05:23:16;9.60;99.90
15343;DHT22;7771;48.478;8.936;2023-04-01T05:25:44;9.60;99.90
15343;DHT22;7771;48.478;8.936;2023-04-01T05:28:12;9.60;99.90
15343;DHT22;7771;48.478;8.936;2023-04-01T05:30:40;9.70;99.90
15343;DHT22;7771;48.478;8.936;2023-04-01T05:33:06;9.60;99.90
15343;DHT22;7771;48.478;8.936;2023-04-01T05:35:34;9.60;99.90
15343;DHT22;7771;48.478;8.936;2023-04-01T05:38:01;9.70;99.90
15343;DHT22;7771;48.478;8.936;2023-04-01T05:40:29;9.80;99.90
15343;DHT22;7771;48.478;8.936;2023-04-01T05:42:56;9.80;99.90
15343;DHT22;7771;48.478;8.936;2023-04-01T05:45:23;9.80;99.90
15343;DHT22;7771;48.478;8.936;2023-04-01T05:47:51;9.80;99.90
15343;DHT22;7771;48.478;8.936;2023-04-01T05:50:19;9.80;99.90
15343;DHT22;7771;48.478;8.936;2023-04-01T05:52:45;9.80;99.90
15343;DHT22;7771;48.478;8.936;2023-04-01T05:55:13;9.80;99.90
15343;DHT22;7771;48.478;8.936;2023-04-01T05:57:40;9.90;99.90
15343;DHT22;7771;48.478;8.936;2023-04-01T06:00:07;9.90;99.90
15343;DHT22;7771;48.478;8.936;2023-04-01T06:02:34;9.90;99.90
15343;DHT22;7771;48.478;8.936;2023-04-01T06:05:18;9.90;99.90
15343;DHT22;7771;48.478;8.936;2023-04-01T06:07:30;9.90;99.90
15343;DHT22;7771;48.478;8.936;2023-04-01T06:09:56;9.90;99.90
15343;DHT22;7771;48.478;8.936;2023-04-01T06:12:27;9.90;99.90
15343;DHT22;7771;48.478;8.936;2023-04-01T06:17:45;10.00;99.90
15343;DHT22;7771;48.478;8.936;2023-04-01T06:20:22;10.00;99.90
15343;DHT22;7771;48.478;8.936;2023-04-01T06:22:56;10.00;99.90
15343;DHT22;7771;48.478;8.936;2023-04-01T06:25:24;10.00;99.90
15343;DHT22;7771;48.478;8.936;2023-04-01T06:27:59;10.10;99.90
15343;DHT22;7771;48.478;8.936;2023-04-01T06:30:41;10.20;99.90
15343;DHT22;7771;48.478;8.936;2023-04-01T06:33:35;10.20;99.90
15343;DHT22;7771;48.478;8.936;2023-04-01T06:36:06;10.30;99.90
15343;DHT22;7771;48.478;8.936;2023-04-01T06:38:33;10.40;99.90
15343;DHT22;7771;48.478;8.936;2023-04-01T06:41:06;10.40;99.90
15343;DHT22;7771;48.478;8.936;2023-04-01T06:43:35;10.50;99.90
15343;DHT22;7771;48.478;8.936;2023-04-01T06:46:00;10.60;99.90
15343;DHT22;7771;48.478;8.936;2023-04-01T06:48:32;10.60;99.90
15343;DHT22;7771;48.478;8.936;2023-04-01T06:51:20;10.60;99.90
15343;DHT22;7771;48.478;8.936;2023-04-01T06:54:03;10.60;99.90
15343;DHT22;7771;48.478;8.936;2023-04-01T06:56:27;10.70;99.90
15343;DHT22;7771;48.478;8.936;2023-04-01T06:58:58;10.70;99.90
15343;DHT22;7771;48.478;8.936;2023-04-01T07:01:33;10.70;99.90
15343;DHT22;7771;48.478;8.936;2023-04-01T07:04:01;10.80;99.90
15343;DHT22;7771;48.478;8.936;2023-04-01T07:06:30;10.80;99.90
15343;DHT22;7771;48.478;8.936;2023-04-01T07:08:55;10.80;99.90
15343;DHT22;7771;48.478;8.936;2023-04-01T07:11:27;10.80;99.90
15343;DHT22;7771;48.478;8.936;2023-04-01T07:13:54;10.90;99.90
15343;DHT22;7771;48.478;8.936;2023-04-01T07:16:24;10.90;99.90
15343;DHT22;7771;48.478;8.936;2023-04-01T07:21:35;11.00;99.90
15343;DHT22;7771;48.478;8.936;2023-04-01T07:24:05;11.00;99.90
15343;DHT22;7771;48.478;8.936;2023-04-01T07:26:32;11.00;99.90
15343;DHT22;7771;48.478;8.936;2023-04-01T07:31:43;11.10;99.90
15343;DHT22;7771;48.478;8.936;2023-04-01T07:34:19;11.20;99.90
15343;DHT22;7771;48.478;8.936;2023-04-01T07:36:50;11.10;99.90
15343;DHT22;7771;48.478;8.936;2023-04-01T07:39:26;11.10;99.90
15343;DHT22;7771;48.478;8.936;2023-04-01T07:41:58;11.20;99.90
15343;DHT22;7771;48.478;8.936;2023-04-01T07:44:25;11.20;99.90
15343;DHT22;7771;48.478;8.936;2023-04-01T07:47:04;11.20;99.90
15343;DHT22;7771;48.478;8.936;2023-04-01T07:49:37;11.20;99.90
15343;DHT22;7771;48.478;8.936;2023-04-01T07:52:02;11.30;99.90
15343;DHT22;7771;48.478;8.936;2023-04-01T07:54:40;11.30;99.90
15343;DHT22;7771;48.478;8.936;2023-04-01T07:57:32;11.30;99.90
15343;DHT22;7771;48.478;8.936;2023-04-01T08:00:16;11.40;99.90
15343;DHT22;7771;48.478;8.936;2023-04-01T08:03:04;11.40;99.90
15343;DHT22;7771;48.478;8.936;2023-04-01T08:05:28;11.40;99.90
15343;DHT22;7771;48.478;8.936;2023-04-01T08:08:17;11.40;99.90
15343;DHT22;7771;48.478;8.936;2023-04-01T08:10:50;11.40;99.90
15343;DHT22;7771;48.478;8.936;2023-04-01T08:14:30;11.50;99.90
15343;DHT22;7771;48.478;8.936;2023-04-01T08:18:48;11.50;99.90
15343;DHT22;7771;48.478;8.936;2023-04-01T08:21:17;11.50;99.90
15343;DHT22;7771;48.478;8.936;2023-04-01T08:23:46;11.50;99.90
15343;DHT22;7771;48.478;8.936;2023-04-01T08:26:20;11.60;99.90
15343;DHT22;7771;48.478;8.936;2023-04-01T08:28:49;11.50;99.90
15343;DHT22;7771;48.478;8.936;2023-04-01T08:31:25;11.60;99.90
15343;DHT22;7771;48.478;8.936;2023-04-01T08:33:53;11.60;99.90
15343;DHT22;7771;48.478;8.936;2023-04-01T08:36:22;11.60;99.90
15343;DHT22;7771;48.478;8.936;2023-04-01T08:38:54;11.70;99.90
15343;DHT22;7771;48.478;8.936;2023-04-01T08:41:46;11.60;99.90
15343;DHT22;7771;48.478;8.936;2023-04-01T08:47:36;11.60;99.90
15343;DHT22;7771;48.478;8.936;2023-04-01T08:50:03;11.70;99.90
15343;DHT22;7771;48.478;8.936;2023-04-01T08:52:33;11.70;99.90
15343;DHT22;7771;48.478;8.936;2023-04-01T08:55:02;11.70;99.90
15343;DHT22;7771;48.478;8.936;2023-04-01T09:00:24;11.70;99.90
15343;DHT22;7771;48.478;8.936;2023-04-01T09:05:47;11.70;99.90
15343;DHT22;7771;48.478;8.936;2023-04-01T09:08:31;11.70;99.90
15343;DHT22;7771;48.478;8.936;2023-04-01T09:11:07;11.70;99.90
15343;DHT22;7771;48.478;8.936;2023-04-01T09:14:00;11.70;99.90
15343;DHT22;7771;48.478;8.936;2023-04-01T09:16:38;11.80;99.90
15343;DHT22;7771;48.478;8.936;2023-04-01T09:19:11;12.00;99.90
15343;DHT22;7771;48.478;8.936;2023-04-01T09:21:57;12.10;99.90
15343;DHT22;7771;48.478;8.936;2023-04-01T09:24:26;12.20;99.90
15343;DHT22;7771;48.478;8.936;2023-04-01T09:27:00;12.30;99.90
15343;DHT22;7771;48.478;8.936;2023-04-01T09:29:39;12.40;99.90
15343;DHT22;7771;48.478;8.936;2023-04-01T09:32:33;12.40;99.90
15343;DHT22;7771;48.478;8.936;2023-04-01T09:34:55;12.40;99.90
15343;DHT22;7771;48.478;8.936;2023-04-01T09:37:21;12.40;99.90
15343;DHT22;7771;48.478;8.936;2023-04-01T09:42:43;12.70;99.90
15343;DHT22;7771;48.478;8.936;2023-04-01T09:45:48;12.70;99.90
15343;DHT22;7771;48.478;8.936;2023-04-01T09:48:14;12.80;99.90
15343;DHT22;7771;48.478;8.936;2023-04-01T09:50:42;12.80;99.90
15343;DHT22;7771;48.478;8.936;2023-04-01T09:56:02;13.00;99.90
15343;DHT22;7771;48.478;8.936;2023-04-01T09:58:32;13.10;99.90
15343;DHT22;7771;48.478;8.936;2023-04-01T10:01:08;13.00;99.90
15343;DHT22;7771;48.478;8.936;2023-04-01T10:06:47;12.90;99.90
15343;DHT22;7771;48.478;8.936;2023-04-01T10:09:21;12.90;99.90
15343;DHT22;7771;48.478;8.936;2023-04-01T10:11:53;12.70;99.90
15343;DHT22;7771;48.478;8.936;2023-04-01T10:14:37;12.60;99.90
15343;DHT22;7771;48.478;8.936;2023-04-01T10:19:59;12.50;99.90
15343;DHT22;7771;48.478;8.936;2023-04-01T10:25:30;12.50;99.90
15343;DHT22;7771;48.478;8.936;2023-04-01T10:28:16;12.60;99.90
15343;DHT22;7771;48.478;8.936;2023-04-01T10:33:34;12.70;99.90
15343;DHT22;7771;48.478;8.936;2023-04-01T10:36:10;12.80;99.90
15343;DHT22;7771;48.478;8.936;2023-04-01T10:38:47;12.80;99.90
15343;DHT22;7771;48.478;8.936;2023-04-01T10:41:35;12.90;99.90
15343;DHT22;7771;48.478;8.936;2023-04-01T10:46:59;13.00;99.90
15343;DHT22;7771;48.478;8.936;2023-04-01T10:49:41;13.00;99.90
15343;DHT22;7771;48.478;8.936;2023-04-01T10:53:00;13.00;99.90
15343;DHT22;7771;48.478;8.936;2023-04-01T10:55:36;13.10;99.90
15343;DHT22;7771;48.478;8.936;2023-04-01T11:01:05;13.20;99.90
15343;DHT22;7771;48.478;8.936;2023-04-01T11:03:37;13.40;99.90
15343;DHT22;7771;48.478;8.936;2023-04-01T11:06:03;13.40;99.90
15343;DHT22;7771;48.478;8.936;2023-04-01T11:14:23;13.70;99.90
15343;DHT22;7771;48.478;8.936;2023-04-01T11:17:45;13.80;99.90
15343;DHT22;7771;48.478;8.936;2023-04-01T11:20:04;13.80;99.90
15343;DHT22;7771;48.478;8.936;2023-04-01T11:22:35;13.70;99.90
15343;DHT22;7771;48.478;8.936;2023-04-01T11:25:14;13.70;99.90
15343;DHT22;7771;48.478;8.936;2023-04-01T11:27:46;13.70;99.90
15343;DHT22;7771;48.478;8.936;2023-04-01T11:30:14;13.60;99.90
15343;DHT22;7771;48.478;8.936;2023-04-01T11:32:49;13.60;99.90
15343;DHT22;7771;48.478;8.936;2023-04-01T11:35:31;13.50;99.90
15343;DHT22;7771;48.478;8.936;2023-04-01T11:38:02;13.60;99.90
15343;DHT22;7771;48.478;8.936;2023-04-01T11:40:29;13.60;99.90
15343;DHT22;7771;48.478;8.936;2023-04-01T11:42:57;13.60;99.90
15343;DHT22;7771;48.478;8.936;2023-04-01T11:45:29;13.60;99.90
15343;DHT22;7771;48.478;8.936;2023-04-01T11:48:00;13.70;99.90
15343;DHT22;7771;48.478;8.936;2023-04-01T11:50:34;13.70;99.90
15343;DHT22;7771;48.478;8.936;2023-04-01T11:53:16;13.80;99.90
15343;DHT22;7771;48.478;8.936;2023-04-01T11:55:49;13.70;99.90
15343;DHT22;7771;48.478;8.936;2023-04-01T11:58:21;13.60;99.90
15343;DHT22;7771;48.478;8.936;2023-04-01T12:00:52;13.60;99.90
15343;DHT22;7771;48.478;8.936;2023-04-01T12:03:43;13.60;99.90
15343;DHT22;7771;48.478;8.936;2023-04-01T12:06:32;13.60;99.90
15343;DHT22;7771;48.478;8.936;2023-04-01T12:10:21;13.60;99.90
15343;DHT22;7771;48.478;8.936;2023-04-01T12:12:18;13.60;99.90
15343;DHT22;7771;48.478;8.936;2023-04-01T12:15:10;13.50;99.90
15343;DHT22;7771;48.478;8.936;2023-04-01T12:17:35;13.50;99.90
15343;DHT22;7771;48.478;8.936;2023-04-01T12:22:38;13.50;99.90
15343;DHT22;7771;48.478;8.936;2023-04-01T12:25:06;13.40;99.90
15343;DHT22;7771;48.478;8.936;2023-04-01T12:27:41;13.40;99.90
15343;DHT22;7771;48.478;8.936;2023-04-01T12:30:28;13.30;99.90
15343;DHT22;7771;48.478;8.936;2023-04-01T12:38:44;13.30;99.90
15343;DHT22;7771;48.478;8.936;2023-04-01T12:43:52;13.30;99.90
15343;DHT22;7771;48.478;8.936;2023-04-01T12:46:16;13.30;99.90
15343;DHT22;7771;48.478;8.936;2023-04-01T12:51:29;13.30;99.90
15343;DHT22;7771;48.478;8.936;2023-04-01T12:57:05;13.40;99.90
15343;DHT22;7771;48.478;8.936;2023-04-01T13:02:12;13.40;99.90
15343;DHT22;7771;48.478;8.936;2023-04-01T13:04:50;13.40;99.90
15343;DHT22;7771;48.478;8.936;2023-04-01T13:07:56;13.40;99.90
15343;DHT22;7771;48.478;8.936;2023-04-01T13:13:47;13.70;99.90
15343;DHT22;7771;48.478;8.936;2023-04-01T13:15:22;13.70;99.90
15343;DHT22;7771;48.478;8.936;2023-04-01T13:17:53;13.70;99.90
15343;DHT22;7771;48.478;8.936;2023-04-01T13:20:24;13.70;99.90
15343;DHT22;7771;48.478;8.936;2023-04-01T13:23:01;13.80;99.90
15343;DHT22;7771;48.478;8.936;2023-04-01T13:25:46;13.80;99.90
15343;DHT22;7771;48.478;8.936;2023-04-01T13:28:29;13.90;99.90
15343;DHT22;7771;48.478;8.936;2023-04-01T13:31:01;13.90;99.90
15343;DHT22;7771;48.478;8.936;2023-04-01T13:33:45;13.90;99.90
15343;DHT22;7771;48.478;8.936;2023-04-01T13:36:15;14.00;99.90
15343;DHT22;7771;48.478;8.936;2023-04-01T13:41:21;14.00;99.90
15343;DHT22;7771;48.478;8.936;2023-04-01T13:43:51;14.00;99.90
15343;DHT22;7771;48.478;8.936;2023-04-01T13:46:22;14.00;99.90
15343;DHT22;7771;48.478;8.936;2023-04-01T13:49:01;14.00;99.90
15343;DHT22;7771;48.478;8.936;2023-04-01T13:51:52;14.00;99.90
15343;DHT22;7771;48.478;8.936;2023-04-01T13:54:55;13.90;99.90
15343;DHT22;7771;48.478;8.936;2023-04-01T13:57:40;13.90;99.90
15343;DHT22;7771;48.478;8.936;2023-04-01T14:00:10;13.90;99.90
15343;DHT22;7771;48.478;8.936;2023-04-01T14:03:08;13.90;99.90
15343;DHT22;7771;48.478;8.936;2023-04-01T14:05:48;13.90;99.90
15343;DHT22;7771;48.478;8.936;2023-04-01T14:08:20;13.90;99.90
15343;DHT22;7771;48.478;8.936;2023-04-01T14:10:53;13.90;99.90
15343;DHT22;7771;48.478;8.936;2023-04-01T14:13:32;13.90;99.90
15343;DHT22;7771;48.478;8.936;2023-04-01T14:16:07;13.90;99.90
15343;DHT22;7771;48.478;8.936;2023-04-01T14:18:46;14.00;99.90
15343;DHT22;7771;48.478;8.936;2023-04-01T14:21:19;14.00;99.90
15343;DHT22;7771;48.478;8.936;2023-04-01T14:31:57;13.90;99.90
15343;DHT22;7771;48.478;8.936;2023-04-01T14:34:23;13.90;99.90
15343;DHT22;7771;48.478;8.936;2023-04-01T14:37:15;13.80;99.90
15343;DHT22;7771;48.478;8.936;2023-04-01T14:39:54;13.80;99.90
15343;DHT22;7771;48.478;8.936;2023-04-01T14:42:33;13.80;99.90
15343;DHT22;7771;48.478;8.936;2023-04-01T14:45:35;13.80;99.90
15343;DHT22;7771;48.478;8.936;2023-04-01T14:47:53;13.80;99.90
15343;DHT22;7771;48.478;8.936;2023-04-01T14:50:20;13.80;99.90
15343;DHT22;7771;48.478;8.936;2023-04-01T14:52:55;13.80;99.90
15343;DHT22;7771;48.478;8.936;2023-04-01T14:55:20;13.70;99.90
15343;DHT22;7771;48.478;8.936;2023-04-01T14:58:18;13.70;99.90
15343;DHT22;7771;48.478;8.936;2023-04-01T15:00:28;13.70;99.90
15343;DHT22;7771;48.478;8.936;2023-04-01T15:02:58;13.70;99.90
15343;DHT22;7771;48.478;8.936;2023-04-01T15:08:15;13.60;99.90
15343;DHT22;7771;48.478;8.936;2023-04-01T15:10:53;13.50;99.90
15343;DHT22;7771;48.478;8.936;2023-04-01T15:13:43;13.50;99.90
15343;DHT22;7771;48.478;8.936;2023-04-01T15:21:30;13.50;99.90
15343;DHT22;7771;48.478;8.936;2023-04-01T15:24:13;13.40;99.90
15343;DHT22;7771;48.478;8.936;2023-04-01T15:29:29;13.30;99.90
15343;DHT22;7771;48.478;8.936;2023-04-01T15:31:54;13.40;99.90
15343;DHT22;7771;48.478;8.936;2023-04-01T15:34:43;13.40;99.90
15343;DHT22;7771;48.478;8.936;2023-04-01T15:39:57;13.30;99.90
15343;DHT22;7771;48.478;8.936;2023-04-01T15:43:03;13.30;99.90
15343;DHT22;7771;48.478;8.936;2023-04-01T15:45:16;13.30;99.90
15343;DHT22;7771;48.478;8.936;2023-04-01T15:47:46;13.30;99.90
15343;DHT22;7771;48.478;8.936;2023-04-01T15:50:37;13.20;99.90
15343;DHT22;7771;48.478;8.936;2023-04-01T15:53:18;13.20;99.90
15343;DHT22;7771;48.478;8.936;2023-04-01T15:56:10;13.10;99.90
15343;DHT22;7771;48.478;8.936;2023-04-01T15:59:50;13.10;99.90
15343;DHT22;7771;48.478;8.936;2023-04-01T16:01:30;13.00;99.90
15343;DHT22;7771;48.478;8.936;2023-04-01T16:04:00;13.00;99.90
15343;DHT22;7771;48.478;8.936;2023-04-01T16:06:49;13.00;99.90
15343;DHT22;7771;48.478;8.936;2023-04-01T16:12:18;13.00;99.90
15343;DHT22;7771;48.478;8.936;2023-04-01T16:14:55;12.90;99.90
15343;DHT22;7771;48.478;8.936;2023-04-01T16:17:49;12.90;99.90
15343;DHT22;7771;48.478;8.936;2023-04-01T16:23:00;12.90;99.90
15343;DHT22;7771;48.478;8.936;2023-04-01T16:25:33;12.90;99.90
15343;DHT22;7771;48.478;8.936;2023-04-01T16:30:40;12.80;99.90
15343;DHT22;7771;48.478;8.936;2023-04-01T16:33:12;12.70;99.90
15343;DHT22;7771;48.478;8.936;2023-04-01T16:35:42;12.80;99.90
15343;DHT22;7771;48.478;8.936;2023-04-01T16:41:11;12.90;99.90
15343;DHT22;7771;48.478;8.936;2023-04-01T16:43:42;12.80;99.90
15343;DHT22;7771;48.478;8.936;2023-04-01T16:46:26;12.80;99.90
15343;DHT22;7771;48.478;8.936;2023-04-01T16:48:58;12.90;99.90
15343;DHT22;7771;48.478;8.936;2023-04-01T16:51:44;12.80;99.90
15343;DHT22;7771;48.478;8.936;2023-04-01T16:56:50;12.60;99.90
15343;DHT22;7771;48.478;8.936;2023-04-01T16:59:19;12.60;99.90
15343;DHT22;7771;48.478;8.936;2023-04-01T17:02:16;12.50;99.90
15343;DHT22;7771;48.478;8.936;2023-04-01T17:04:47;12.60;99.90
15343;DHT22;7771;48.478;8.936;2023-04-01T17:07:37;12.50;99.90
15343;DHT22;7771;48.478;8.936;2023-04-01T17:10:22;12.50;99.90
15343;DHT22;7771;48.478;8.936;2023-04-01T17:15:33;12.50;99.90
15343;DHT22;7771;48.478;8.936;2023-04-01T17:18:01;12.50;99.90
15343;DHT22;7771;48.478;8.936;2023-04-01T17:20:32;12.40;99.90
15343;DHT22;7771;48.478;8.936;2023-04-01T17:23:08;12.40;99.90
15343;DHT22;7771;48.478;8.936;2023-04-01T17:25:46;12.50;99.90
15343;DHT22;7771;48.478;8.936;2023-04-01T17:28:14;12.40;99.90
15343;DHT22;7771;48.478;8.936;2023-04-01T17:30:42;12.40;99.90
15343;DHT22;7771;48.478;8.936;2023-04-01T17:33:16;12.40;99.90
15343;DHT22;7771;48.478;8.936;2023-04-01T17:38:39;12.30;99.90
15343;DHT22;7771;48.478;8.936;2023-04-01T17:41:20;12.30;99.90
15343;DHT22;7771;48.478;8.936;2023-04-01T17:43:53;12.30;99.90
15343;DHT22;7771;48.478;8.936;2023-04-01T17:49:02;12.30;99.90
15343;DHT22;7771;48.478;8.936;2023-04-01T17:51:32;12.30;99.90
15343;DHT22;7771;48.478;8.936;2023-04-01T17:54:00;12.30;99.90
15343;DHT22;7771;48.478;8.936;2023-04-01T17:56:47;12.30;99.90
15343;DHT22;7771;48.478;8.936;2023-04-01T17:59:18;12.20;99.90
15343;DHT22;7771;48.478;8.936;2023-04-01T18:05:01;12.10;99.90
15343;DHT22;7771;48.478;8.936;2023-04-01T18:07:30;12.10;99.90
15343;DHT22;7771;48.478;8.936;2023-04-01T18:15:40;12.00;99.90
15343;DHT22;7771;48.478;8.936;2023-04-01T18:19:35;12.00;99.90
15343;DHT22;7771;48.478;8.936;2023-04-01T18:23:43;12.00;99.90
15343;DHT22;7771;48.478;8.936;2023-04-01T18:26:18;12.00;99.90
15343;DHT22;7771;48.478;8.936;2023-04-01T18:28:43;12.00;99.90
15343;DHT22;7771;48.478;8.936;2023-04-01T18:31:14;12.00;99.90
15343;DHT22;7771;48.478;8.936;2023-04-01T18:33:47;12.00;99.90
15343;DHT22;7771;48.478;8.936;2023-04-01T18:38:52;12.00;99.90
15343;DHT22;7771;48.478;8.936;2023-04-01T18:41:25;12.00;99.90
15343;DHT22;7771;48.478;8.936;2023-04-01T18:43:52;11.90;99.90
15343;DHT22;7771;48.478;8.936;2023-04-01T18:46:20;11.90;99.90